C6534 KEFD-KEFD

Flight info

Callsign C6534
Flight time 1h 47m
Altitude 2000
Route VFR
Aircraft AS65/L-VGD/C

Departure

Time 2026-05-04 22:37
Airport Ellington Airport (KEFD)

Arrival

Time 2026-05-05 00:24
Airport Ellington Airport (KEFD)
Time Latitude Longitude Altitude Speed Heading
2026-05-04 22:33 29.60994 -95.16785 38 ft 0 kts 179°
2026-05-04 22:35 29.60989 -95.16786 48 ft 0 kts 159°
2026-05-04 22:36 29.60989 -95.16785 45 ft 0 kts 160°
2026-05-04 22:36 29.60954 -95.16763 223 ft 19 kts 162°
2026-05-04 22:36 29.60730 -95.16624 490 ft 56 kts 158°
2026-05-04 22:36 29.60259 -95.16355 629 ft 95 kts 158°
2026-05-04 22:37 29.59609 -95.15997 722 ft 103 kts 159°
2026-05-04 22:37 29.59000 -95.15681 733 ft 95 kts 161°
2026-05-04 22:37 29.58395 -95.15342 739 ft 98 kts 159°
2026-05-04 22:37 29.57772 -95.15019 741 ft 98 kts 160°
2026-05-04 22:38 29.57153 -95.14705 741 ft 96 kts 159°
2026-05-04 22:38 29.56581 -95.14436 742 ft 96 kts 159°
2026-05-04 22:38 29.55962 -95.14151 742 ft 95 kts 161°
2026-05-04 22:38 29.55360 -95.13820 742 ft 97 kts 160°
2026-05-04 22:39 29.54755 -95.13475 744 ft 99 kts 159°
2026-05-04 22:39 29.54127 -95.13127 739 ft 101 kts 159°
2026-05-04 22:39 29.53501 -95.12806 749 ft 95 kts 159°
2026-05-04 22:39 29.52892 -95.12521 702 ft 94 kts 161°
2026-05-04 22:40 29.52282 -95.12204 684 ft 100 kts 158°
2026-05-04 22:40 29.51647 -95.11884 684 ft 99 kts 159°
2026-05-04 22:40 29.50990 -95.11552 665 ft 112 kts 159°
2026-05-04 22:40 29.50218 -95.11145 686 ft 125 kts 159°
2026-05-04 22:41 29.49442 -95.10737 674 ft 124 kts 159°
2026-05-04 22:41 29.48654 -95.10334 678 ft 124 kts 160°
2026-05-04 22:41 29.47875 -95.09931 673 ft 124 kts 159°
2026-05-04 22:41 29.47073 -95.09520 682 ft 126 kts 160°
2026-05-04 22:42 29.46274 -95.09104 678 ft 127 kts 159°
2026-05-04 22:42 29.45450 -95.08668 683 ft 131 kts 159°
2026-05-04 22:42 29.44646 -95.08248 681 ft 126 kts 160°
2026-05-04 22:42 29.43879 -95.07828 671 ft 127 kts 159°
2026-05-04 22:43 29.43068 -95.07389 678 ft 128 kts 158°
2026-05-04 22:43 29.42274 -95.06991 683 ft 126 kts 160°
2026-05-04 22:43 29.41495 -95.06600 685 ft 120 kts 160°
2026-05-04 22:43 29.40707 -95.06195 675 ft 123 kts 159°
2026-05-04 22:44 29.39918 -95.05816 672 ft 127 kts 159°
2026-05-04 22:44 29.39102 -95.05416 677 ft 128 kts 159°
2026-05-04 22:44 29.38278 -95.04991 678 ft 129 kts 160°
2026-05-04 22:44 29.37484 -95.04570 686 ft 124 kts 159°
2026-05-04 22:45 29.36695 -95.04176 678 ft 125 kts 159°
2026-05-04 22:45 29.35070 -95.03378 683 ft 133 kts 158°
2026-05-04 22:45 29.34207 -95.02966 694 ft 133 kts 160°
2026-05-04 22:46 29.33379 -95.02571 685 ft 129 kts 160°
2026-05-04 22:46 29.32570 -95.02159 681 ft 126 kts 159°
2026-05-04 22:46 29.32021 -95.01879 680 ft 128 kts 160°
2026-05-04 22:46 29.31190 -95.01616 690 ft 124 kts 180°
2026-05-04 22:47 29.30323 -95.01588 688 ft 126 kts 182°
2026-05-04 22:47 29.29445 -95.01626 689 ft 124 kts 184°
2026-05-04 22:47 29.28556 -95.01675 685 ft 130 kts 184°
2026-05-04 22:47 29.27654 -95.01718 685 ft 129 kts 183°
2026-05-04 22:48 29.26768 -95.01771 696 ft 125 kts 185°
2026-05-04 22:48 29.25905 -95.01818 682 ft 127 kts 183°
2026-05-04 22:48 29.25002 -95.01881 687 ft 131 kts 186°
2026-05-04 22:48 29.24129 -95.02026 693 ft 123 kts 197°
2026-05-04 22:49 29.23313 -95.02367 688 ft 126 kts 205°
2026-05-04 22:49 29.22551 -95.02881 683 ft 128 kts 211°
2026-05-04 22:49 29.21805 -95.03429 690 ft 123 kts 210°
2026-05-04 22:49 29.21096 -95.04017 663 ft 134 kts 217°
2026-05-04 22:50 29.20449 -95.04816 694 ft 135 kts 227°
2026-05-04 22:50 29.19851 -95.05630 677 ft 134 kts 226°
2026-05-04 22:50 29.19244 -95.06489 678 ft 141 kts 226°
2026-05-04 22:50 29.18647 -95.07341 676 ft 135 kts 227°
2026-05-04 22:51 29.18053 -95.08172 673 ft 136 kts 227°
2026-05-04 22:51 29.17475 -95.09010 678 ft 131 kts 227°
2026-05-04 22:51 29.16915 -95.09844 660 ft 137 kts 226°
2026-05-04 22:51 29.16339 -95.10722 682 ft 136 kts 229°
2026-05-04 22:52 29.15770 -95.11555 669 ft 134 kts 227°
2026-05-04 22:52 29.15192 -95.12408 673 ft 137 kts 227°
2026-05-04 22:52 29.14611 -95.13270 667 ft 136 kts 229°
2026-05-04 22:52 29.14012 -95.14105 658 ft 138 kts 228°
2026-05-04 22:53 29.13398 -95.14944 659 ft 136 kts 227°
2026-05-04 22:53 29.12801 -95.15747 657 ft 129 kts 229°
2026-05-04 22:53 29.12208 -95.16544 647 ft 135 kts 226°
2026-05-04 22:53 29.11614 -95.17359 664 ft 129 kts 227°
2026-05-04 22:54 29.11054 -95.18136 648 ft 128 kts 226°
2026-05-04 22:54 29.10471 -95.18937 660 ft 132 kts 227°
2026-05-04 22:54 29.09879 -95.19735 666 ft 133 kts 227°
2026-05-04 22:54 29.09304 -95.20543 666 ft 130 kts 228°
2026-05-04 22:55 29.08722 -95.21355 665 ft 131 kts 229°
2026-05-04 22:55 29.08127 -95.22152 659 ft 134 kts 227°
2026-05-04 22:55 29.07511 -95.22978 667 ft 135 kts 227°
2026-05-04 22:55 29.06935 -95.23773 658 ft 128 kts 226°
2026-05-04 22:56 29.06347 -95.24588 662 ft 136 kts 227°
2026-05-04 22:56 29.05744 -95.25395 666 ft 130 kts 222°
2026-05-04 22:56 29.05055 -95.26043 660 ft 129 kts 213°
2026-05-04 22:56 29.04322 -95.26658 657 ft 132 kts 212°
2026-05-04 22:57 29.03573 -95.27277 657 ft 132 kts 214°
2026-05-04 22:57 29.02813 -95.27870 650 ft 133 kts 213°
2026-05-04 22:57 29.02036 -95.28461 656 ft 134 kts 212°
2026-05-04 22:57 29.01222 -95.28907 652 ft 128 kts 198°
2026-05-04 22:58 29.00325 -95.29156 652 ft 135 kts 193°
2026-05-04 22:58 28.99441 -95.29393 655 ft 128 kts 194°
2026-05-04 22:58 28.98533 -95.29631 651 ft 137 kts 193°
2026-05-04 22:58 28.97680 -95.29959 657 ft 128 kts 205°
2026-05-04 22:59 28.96880 -95.30460 648 ft 136 kts 209°
2026-05-04 22:59 28.96053 -95.31015 662 ft 134 kts 210°
2026-05-04 22:59 28.95271 -95.31549 651 ft 133 kts 210°
2026-05-04 22:59 28.94473 -95.32081 652 ft 133 kts 209°
2026-05-04 23:00 28.93752 -95.32722 657 ft 129 kts 228°
2026-05-04 23:00 28.93253 -95.33584 644 ft 137 kts 236°
2026-05-04 23:00 28.92789 -95.34548 668 ft 136 kts 236°
2026-05-04 23:00 28.92392 -95.35513 651 ft 135 kts 240°
2026-05-04 23:01 28.91958 -95.36491 658 ft 139 kts 238°
2026-05-04 23:01 28.91506 -95.37457 657 ft 138 kts 235°
2026-05-04 23:01 28.91034 -95.38402 658 ft 134 kts 233°
2026-05-04 23:01 28.90534 -95.39292 654 ft 133 kts 231°
2026-05-04 23:02 28.90032 -95.40170 647 ft 135 kts 232°
2026-05-04 23:02 28.89478 -95.41055 665 ft 136 kts 230°
2026-05-04 23:02 28.88970 -95.41922 649 ft 130 kts 231°
2026-05-04 23:02 28.88444 -95.42796 658 ft 136 kts 232°
2026-05-04 23:03 28.87891 -95.43673 658 ft 136 kts 232°
2026-05-04 23:03 28.87332 -95.44544 660 ft 135 kts 231°
2026-05-04 23:03 28.86787 -95.45422 656 ft 137 kts 232°
2026-05-04 23:03 28.86212 -95.46315 660 ft 140 kts 230°
2026-05-04 23:04 28.85665 -95.47209 660 ft 134 kts 232°
2026-05-04 23:04 28.85123 -95.48094 662 ft 136 kts 232°
2026-05-04 23:04 28.84579 -95.48968 651 ft 136 kts 231°
2026-05-04 23:04 28.84033 -95.49844 660 ft 133 kts 232°
2026-05-04 23:05 28.83485 -95.50689 648 ft 134 kts 230°
2026-05-04 23:05 28.82931 -95.51574 658 ft 139 kts 232°
2026-05-04 23:05 28.82372 -95.52448 656 ft 134 kts 232°
2026-05-04 23:05 28.81827 -95.53309 645 ft 137 kts 232°
2026-05-04 23:06 28.81277 -95.54181 655 ft 135 kts 232°
2026-05-04 23:06 28.80742 -95.55056 646 ft 136 kts 231°
2026-05-04 23:06 28.80197 -95.55947 656 ft 135 kts 232°
2026-05-04 23:06 28.79669 -95.56803 653 ft 131 kts 231°
2026-05-04 23:07 28.79138 -95.57680 652 ft 136 kts 231°
2026-05-04 23:07 28.78625 -95.58554 654 ft 131 kts 233°
2026-05-04 23:07 28.78082 -95.59410 654 ft 136 kts 232°
2026-05-04 23:07 28.77529 -95.60279 654 ft 135 kts 231°
2026-05-04 23:08 28.76976 -95.61158 654 ft 138 kts 231°
2026-05-04 23:08 28.76412 -95.62047 655 ft 139 kts 231°
2026-05-04 23:08 28.75860 -95.62950 656 ft 138 kts 233°
2026-05-04 23:08 28.75289 -95.63839 647 ft 139 kts 231°
2026-05-04 23:09 28.74730 -95.64733 658 ft 140 kts 231°
2026-05-04 23:09 28.74181 -95.65632 650 ft 138 kts 231°
2026-05-04 23:09 28.73614 -95.66552 656 ft 142 kts 231°
2026-05-04 23:09 28.73063 -95.67458 655 ft 137 kts 232°
2026-05-04 23:10 28.72502 -95.68359 651 ft 142 kts 231°
2026-05-04 23:10 28.71954 -95.69291 657 ft 141 kts 233°
2026-05-04 23:10 28.71406 -95.70197 657 ft 138 kts 232°
2026-05-04 23:10 28.70849 -95.71101 656 ft 140 kts 231°
2026-05-04 23:11 28.70303 -95.72002 657 ft 136 kts 232°
2026-05-04 23:11 28.69782 -95.72875 647 ft 132 kts 231°
2026-05-04 23:11 28.69268 -95.73756 649 ft 135 kts 231°
2026-05-04 23:11 28.68758 -95.74634 652 ft 133 kts 233°
2026-05-04 23:12 28.68231 -95.75479 651 ft 130 kts 229°
2026-05-04 23:12 28.67741 -95.76355 648 ft 131 kts 232°
2026-05-04 23:12 28.67227 -95.77231 651 ft 134 kts 231°
2026-05-04 23:12 28.66696 -95.78105 653 ft 133 kts 232°
2026-05-04 23:13 28.66167 -95.78971 654 ft 131 kts 232°
2026-05-04 23:13 28.65641 -95.79826 642 ft 133 kts 231°
2026-05-04 23:13 28.65110 -95.80714 646 ft 137 kts 232°
2026-05-04 23:13 28.64575 -95.81588 650 ft 132 kts 232°
2026-05-04 23:14 28.64048 -95.82446 645 ft 133 kts 231°
2026-05-04 23:14 28.63544 -95.83335 642 ft 136 kts 231°
2026-05-04 23:14 28.63021 -95.84229 653 ft 134 kts 232°
2026-05-04 23:14 28.62495 -95.85129 643 ft 140 kts 231°
2026-05-04 23:15 28.61959 -95.86063 655 ft 140 kts 233°
2026-05-04 23:15 28.61424 -95.86963 643 ft 136 kts 231°
2026-05-04 23:15 28.60890 -95.87879 643 ft 141 kts 232°
2026-05-04 23:15 28.60337 -95.88796 648 ft 139 kts 231°
2026-05-04 23:16 28.59798 -95.89693 639 ft 139 kts 232°
2026-05-04 23:16 28.59256 -95.90607 646 ft 140 kts 239°
2026-05-04 23:16 28.59066 -95.91704 640 ft 148 kts 268°
2026-05-04 23:16 28.59192 -95.92878 650 ft 149 kts 277°
2026-05-04 23:17 28.59337 -95.94044 646 ft 148 kts 277°
2026-05-04 23:17 28.59479 -95.95194 643 ft 146 kts 277°
2026-05-04 23:17 28.59631 -95.96343 640 ft 148 kts 275°
2026-05-04 23:17 28.59823 -95.97485 644 ft 149 kts 277°
2026-05-04 23:18 28.60027 -95.98655 648 ft 148 kts 277°
2026-05-04 23:18 28.60219 -95.99801 645 ft 147 kts 278°
2026-05-04 23:18 28.60383 -96.00931 647 ft 145 kts 277°
2026-05-04 23:18 28.60533 -96.02071 640 ft 147 kts 277°
2026-05-04 23:19 28.60678 -96.03222 644 ft 146 kts 276°
2026-05-04 23:19 28.60846 -96.04370 640 ft 149 kts 277°
2026-05-04 23:19 28.61028 -96.05516 647 ft 145 kts 277°
2026-05-04 23:19 28.61212 -96.06647 635 ft 147 kts 277°
2026-05-04 23:20 28.61394 -96.07799 645 ft 147 kts 277°
2026-05-04 23:20 28.61581 -96.08942 647 ft 149 kts 277°
2026-05-04 23:20 28.61768 -96.10105 645 ft 149 kts 277°
2026-05-04 23:20 28.61911 -96.11265 643 ft 147 kts 270°
2026-05-04 23:21 28.61851 -96.12422 639 ft 148 kts 257°
2026-05-04 23:21 28.61680 -96.13592 648 ft 150 kts 256°
2026-05-04 23:21 28.61484 -96.14762 644 ft 151 kts 256°
2026-05-04 23:21 28.61265 -96.15900 647 ft 143 kts 252°
2026-05-04 23:22 28.61021 -96.16988 641 ft 142 kts 249°
2026-05-04 23:22 28.60747 -96.18107 644 ft 149 kts 249°
2026-05-04 23:22 28.60484 -96.19203 646 ft 140 kts 250°
2026-05-04 23:22 28.60216 -96.20275 632 ft 144 kts 248°
2026-05-04 23:23 28.59943 -96.21404 642 ft 149 kts 248°
2026-05-04 23:23 28.59692 -96.22519 652 ft 140 kts 250°
2026-05-04 23:23 28.59426 -96.23585 638 ft 141 kts 249°
2026-05-04 23:23 28.59149 -96.24675 635 ft 148 kts 249°
2026-05-04 23:24 28.58885 -96.25717 643 ft 146 kts 250°
2026-05-04 23:24 28.58598 -96.26829 648 ft 143 kts 249°
2026-05-04 23:24 28.58186 -96.27852 645 ft 141 kts 232°
2026-05-04 23:24 28.57628 -96.28741 640 ft 140 kts 227°
2026-05-04 23:25 28.57048 -96.29607 642 ft 137 kts 228°
2026-05-04 23:25 28.56454 -96.30448 647 ft 135 kts 228°
2026-05-04 23:25 28.55876 -96.31262 642 ft 130 kts 227°
2026-05-04 23:25 28.55303 -96.32083 631 ft 137 kts 227°
2026-05-04 23:26 28.54707 -96.32930 646 ft 135 kts 228°
2026-05-04 23:26 28.54134 -96.33736 638 ft 133 kts 227°
2026-05-04 23:26 28.53552 -96.34561 639 ft 134 kts 227°
2026-05-04 23:26 28.52853 -96.35220 633 ft 132 kts 204°
2026-05-04 23:27 28.51943 -96.35366 639 ft 134 kts 174°
2026-05-04 23:27 28.51110 -96.34964 644 ft 129 kts 147°
2026-05-04 23:27 28.50591 -96.34135 637 ft 133 kts 118°
2026-05-04 23:27 28.50517 -96.33060 631 ft 144 kts 89°
2026-05-04 23:28 28.50938 -96.32002 638 ft 152 kts 60°
2026-05-04 23:28 28.51795 -96.31221 648 ft 161 kts 31°
2026-05-04 23:28 28.52858 -96.30899 636 ft 160 kts 11°
2026-05-04 23:28 28.53959 -96.30776 636 ft 160 kts
2026-05-04 23:29 28.54976 -96.30342 643 ft 152 kts 42°
2026-05-04 23:29 28.55664 -96.29473 641 ft 152 kts 64°
2026-05-04 23:29 28.56227 -96.28463 649 ft 148 kts 68°
2026-05-04 23:29 28.56767 -96.27469 640 ft 147 kts 67°
2026-05-04 23:30 28.57311 -96.26493 643 ft 144 kts 67°
2026-05-04 23:30 28.57847 -96.25525 640 ft 145 kts 68°
2026-05-04 23:30 28.58386 -96.24558 638 ft 146 kts 67°
2026-05-04 23:30 28.58914 -96.23597 641 ft 142 kts 67°
2026-05-04 23:31 28.59436 -96.22630 638 ft 148 kts 66°
2026-05-04 23:31 28.59829 -96.21572 648 ft 143 kts 85°
2026-05-04 23:31 28.60036 -96.20505 641 ft 134 kts 89°
2026-05-04 23:31 28.60224 -96.19465 632 ft 136 kts 87°
2026-05-04 23:32 28.60401 -96.18364 648 ft 142 kts 89°
2026-05-04 23:32 28.60517 -96.17632 647 ft 141 kts 88°
2026-05-04 23:32 28.60727 -96.16227 636 ft 135 kts 89°
2026-05-04 23:32 28.60905 -96.15140 642 ft 142 kts 89°
2026-05-04 23:33 28.61087 -96.14050 644 ft 139 kts 88°
2026-05-04 23:33 28.61236 -96.12992 641 ft 134 kts 89°
2026-05-04 23:33 28.61336 -96.12285 641 ft 134 kts 88°
2026-05-04 23:33 28.61487 -96.11227 637 ft 136 kts 89°
2026-05-04 23:34 28.61653 -96.10140 640 ft 141 kts 89°
2026-05-04 23:34 28.61826 -96.09039 646 ft 141 kts 89°
2026-05-04 23:34 28.61989 -96.07946 635 ft 143 kts 88°
2026-05-04 23:34 28.62146 -96.06822 646 ft 142 kts 89°
2026-05-04 23:35 28.62297 -96.05710 642 ft 142 kts 88°
2026-05-04 23:35 28.62425 -96.04603 643 ft 142 kts 89°
2026-05-04 23:35 28.62569 -96.03491 640 ft 142 kts 90°
2026-05-04 23:35 28.62732 -96.02384 641 ft 142 kts 87°
2026-05-04 23:36 28.62860 -96.01274 647 ft 140 kts 89°
2026-05-04 23:36 28.62983 -96.00187 640 ft 139 kts 91°
2026-05-04 23:36 28.63147 -95.99097 631 ft 142 kts 88°
2026-05-04 23:36 28.63298 -95.97989 642 ft 141 kts 89°
2026-05-04 23:37 28.63444 -95.96894 637 ft 139 kts 90°
2026-05-04 23:37 28.63608 -95.95798 635 ft 142 kts 87°
2026-05-04 23:37 28.63746 -95.94693 642 ft 140 kts 90°
2026-05-04 23:37 28.63888 -95.93619 637 ft 136 kts 90°
2026-05-04 23:38 28.64055 -95.92571 634 ft 137 kts 89°
2026-05-04 23:38 28.64226 -95.91466 642 ft 143 kts 88°
2026-05-04 23:38 28.64372 -95.90355 652 ft 140 kts 89°
2026-05-04 23:38 28.64523 -95.89244 647 ft 142 kts 89°
2026-05-04 23:39 28.64686 -95.88148 633 ft 142 kts 89°
2026-05-04 23:39 28.64858 -95.87037 644 ft 142 kts 89°
2026-05-04 23:39 28.65034 -95.85915 644 ft 145 kts 89°
2026-05-04 23:39 28.65208 -95.84783 639 ft 145 kts 89°
2026-05-04 23:40 28.65390 -95.83677 640 ft 141 kts 89°
2026-05-04 23:40 28.65587 -95.82575 644 ft 142 kts 88°
2026-05-04 23:40 28.65765 -95.81497 635 ft 138 kts 89°
2026-05-04 23:40 28.66041 -95.80409 639 ft 147 kts 76°
2026-05-04 23:41 28.66478 -95.79322 645 ft 152 kts 72°
2026-05-04 23:41 28.66944 -95.78253 646 ft 150 kts 71°
2026-05-04 23:41 28.67437 -95.77208 646 ft 150 kts 64°
2026-05-04 23:41 28.68021 -95.76209 643 ft 153 kts 64°
2026-05-04 23:42 28.68650 -95.75227 641 ft 154 kts 61°
2026-05-04 23:42 28.69254 -95.74220 651 ft 152 kts 65°
2026-05-04 23:42 28.69867 -95.73259 641 ft 150 kts 61°
2026-05-04 23:42 28.70472 -95.72285 651 ft 152 kts 64°
2026-05-04 23:43 28.71080 -95.71324 645 ft 147 kts 63°
2026-05-04 23:43 28.71673 -95.70383 641 ft 146 kts 62°
2026-05-04 23:43 28.72245 -95.69428 643 ft 145 kts 64°
2026-05-04 23:43 28.72831 -95.68501 641 ft 144 kts 62°
2026-05-04 23:44 28.73412 -95.67554 644 ft 147 kts 62°
2026-05-04 23:44 28.73985 -95.66602 650 ft 142 kts 63°
2026-05-04 23:44 28.74550 -95.65665 634 ft 148 kts 63°
2026-05-04 23:44 28.75138 -95.64708 652 ft 145 kts 63°
2026-05-04 23:45 28.75713 -95.63759 636 ft 147 kts 62°
2026-05-04 23:45 28.76279 -95.62791 654 ft 146 kts 63°
2026-05-04 23:45 28.76863 -95.61840 645 ft 147 kts 63°
2026-05-04 23:45 28.77450 -95.60870 650 ft 149 kts 63°
2026-05-04 23:46 28.78038 -95.59886 643 ft 152 kts 63°
2026-05-04 23:46 28.78624 -95.58894 647 ft 152 kts 62°
2026-05-04 23:46 28.79232 -95.57885 652 ft 154 kts 64°
2026-05-04 23:46 28.79842 -95.56913 639 ft 153 kts 62°
2026-05-04 23:47 28.80448 -95.55905 658 ft 150 kts 63°
2026-05-04 23:47 28.81040 -95.54935 649 ft 150 kts 63°
2026-05-04 23:47 28.81641 -95.53953 643 ft 151 kts 62°
2026-05-04 23:47 28.82239 -95.52964 637 ft 153 kts 62°
2026-05-04 23:48 28.82823 -95.51966 655 ft 149 kts 63°
2026-05-04 23:48 28.83398 -95.50993 641 ft 149 kts 63°
2026-05-04 23:48 28.83995 -95.49991 653 ft 154 kts 62°
2026-05-04 23:48 28.84577 -95.48988 649 ft 149 kts 63°
2026-05-04 23:49 28.85149 -95.48006 653 ft 149 kts 63°
2026-05-04 23:49 28.85712 -95.47037 643 ft 151 kts 63°
2026-05-04 23:49 28.86301 -95.46072 655 ft 145 kts 62°
2026-05-04 23:49 28.86859 -95.45107 645 ft 148 kts 64°
2026-05-04 23:50 28.87442 -95.44124 647 ft 151 kts 62°
2026-05-04 23:50 28.88038 -95.43137 657 ft 150 kts 63°
2026-05-04 23:50 28.88633 -95.42159 640 ft 152 kts 62°
2026-05-04 23:50 28.89258 -95.41160 662 ft 152 kts 62°
2026-05-04 23:51 28.89853 -95.40186 641 ft 151 kts 63°
2026-05-04 23:51 28.90477 -95.39195 653 ft 153 kts 63°
2026-05-04 23:51 28.91096 -95.38215 651 ft 151 kts 63°
2026-05-04 23:51 28.91704 -95.37257 655 ft 149 kts 63°
2026-05-04 23:52 28.92318 -95.36296 652 ft 150 kts 62°
2026-05-04 23:52 28.92945 -95.35320 652 ft 153 kts 61°
2026-05-04 23:52 28.93547 -95.34353 648 ft 148 kts 61°
2026-05-04 23:52 28.94162 -95.33335 654 ft 158 kts 63°
2026-05-04 23:53 28.94762 -95.32349 649 ft 148 kts 62°
2026-05-04 23:53 28.95341 -95.31367 649 ft 149 kts 63°
2026-05-04 23:53 28.95922 -95.30398 658 ft 145 kts 62°
2026-05-04 23:53 28.96481 -95.29442 642 ft 146 kts 63°
2026-05-04 23:54 28.97066 -95.28458 646 ft 151 kts 63°
2026-05-04 23:54 28.97641 -95.27489 647 ft 145 kts 62°
2026-05-04 23:54 28.98217 -95.26513 647 ft 150 kts 63°
2026-05-04 23:54 28.98793 -95.25546 648 ft 149 kts 63°
2026-05-04 23:55 28.99384 -95.24546 652 ft 152 kts 63°
2026-05-04 23:55 28.99966 -95.23563 651 ft 148 kts 63°
2026-05-04 23:55 29.01149 -95.21623 656 ft 146 kts 64°
2026-05-04 23:56 29.01753 -95.20684 638 ft 149 kts 62°
2026-05-04 23:56 29.02379 -95.19703 647 ft 155 kts 63°
2026-05-04 23:56 29.02998 -95.18725 646 ft 150 kts 62°
2026-05-04 23:56 29.03612 -95.17740 637 ft 156 kts 62°
2026-05-04 23:57 29.04230 -95.16737 654 ft 150 kts 63°
2026-05-04 23:57 29.04827 -95.15764 632 ft 153 kts 62°
2026-05-04 23:57 29.05443 -95.14755 646 ft 154 kts 63°
2026-05-04 23:57 29.06050 -95.13766 640 ft 153 kts 62°
2026-05-04 23:58 29.06665 -95.12777 640 ft 152 kts 62°
2026-05-04 23:58 29.07269 -95.11782 636 ft 154 kts 63°
2026-05-04 23:58 29.07902 -95.10766 644 ft 158 kts 60°
2026-05-04 23:58 29.08506 -95.09768 645 ft 149 kts 63°
2026-05-04 23:59 29.09113 -95.08778 639 ft 156 kts 62°
2026-05-04 23:59 29.09709 -95.07777 650 ft 148 kts 63°
2026-05-04 23:59 29.10282 -95.06823 642 ft 146 kts 62°
2026-05-04 23:59 29.10885 -95.05841 648 ft 149 kts 63°
2026-05-05 00:00 29.11484 -95.04908 642 ft 147 kts 62°
2026-05-05 00:00 29.11690 -95.04591 642 ft 147 kts 62°
2026-05-05 00:00 29.12703 -95.02982 655 ft 146 kts 63°
2026-05-05 00:00 29.13306 -95.02048 635 ft 151 kts 62°
2026-05-05 00:01 29.13926 -95.01070 660 ft 149 kts 63°
2026-05-05 00:01 29.14527 -95.00109 647 ft 150 kts 61°
2026-05-05 00:01 29.15110 -94.99140 659 ft 144 kts 63°
2026-05-05 00:01 29.15699 -94.98200 642 ft 150 kts 62°
2026-05-05 00:02 29.16309 -94.97218 660 ft 148 kts 63°
2026-05-05 00:02 29.16909 -94.96268 638 ft 150 kts 63°
2026-05-05 00:02 29.17557 -94.95278 660 ft 154 kts 61°
2026-05-05 00:02 29.18178 -94.94277 655 ft 153 kts 63°
2026-05-05 00:03 29.18780 -94.93286 649 ft 154 kts 62°
2026-05-05 00:03 29.19369 -94.92266 659 ft 149 kts 63°
2026-05-05 00:03 29.19953 -94.91289 640 ft 152 kts 62°
2026-05-05 00:03 29.20561 -94.90286 660 ft 152 kts 62°
2026-05-05 00:04 29.21147 -94.89298 640 ft 152 kts 62°
2026-05-05 00:04 29.21748 -94.88291 657 ft 152 kts 63°
2026-05-05 00:04 29.22352 -94.87299 649 ft 153 kts 63°
2026-05-05 00:04 29.22962 -94.86302 653 ft 156 kts 62°
2026-05-05 00:05 29.23561 -94.85287 655 ft 150 kts 63°
2026-05-05 00:05 29.24158 -94.84311 656 ft 150 kts 63°
2026-05-05 00:05 29.24739 -94.83349 643 ft 147 kts 62°
2026-05-05 00:05 29.25319 -94.82383 649 ft 147 kts 63°
2026-05-05 00:06 29.25922 -94.81409 649 ft 152 kts 62°
2026-05-05 00:06 29.26532 -94.80436 655 ft 148 kts 62°
2026-05-05 00:06 29.27152 -94.79468 653 ft 153 kts 61°
2026-05-05 00:06 29.27758 -94.78494 643 ft 151 kts 62°
2026-05-05 00:07 29.28379 -94.77488 655 ft 156 kts 63°
2026-05-05 00:07 29.29002 -94.76496 649 ft 153 kts 62°
2026-05-05 00:07 29.29612 -94.75505 656 ft 151 kts 62°
2026-05-05 00:07 29.30224 -94.74524 651 ft 152 kts 63°
2026-05-05 00:08 29.30859 -94.73545 653 ft 154 kts 63°
2026-05-05 00:08 29.31488 -94.72569 655 ft 151 kts 58°
2026-05-05 00:08 29.32398 -94.71902 645 ft 169 kts 13°
2026-05-05 00:08 29.33431 -94.72271 659 ft 154 kts 312°
2026-05-05 00:09 29.33769 -94.73330 665 ft 138 kts 272°
2026-05-05 00:09 29.33892 -94.74436 659 ft 140 kts 271°
2026-05-05 00:09 29.33972 -94.75543 643 ft 143 kts 267°
2026-05-05 00:09 29.33993 -94.76667 662 ft 138 kts 263°
2026-05-05 00:10 29.33969 -94.77771 648 ft 141 kts 261°
2026-05-05 00:10 29.33881 -94.78883 647 ft 141 kts 258°
2026-05-05 00:10 29.33732 -94.79992 661 ft 138 kts 253°
2026-05-05 00:10 29.33657 -94.81093 653 ft 144 kts 270°
2026-05-05 00:11 29.34046 -94.82189 651 ft 155 kts 299°
2026-05-05 00:11 29.34869 -94.83025 654 ft 161 kts 326°
2026-05-05 00:11 29.35861 -94.83636 652 ft 162 kts 332°
2026-05-05 00:11 29.36844 -94.84183 647 ft 154 kts 335°
2026-05-05 00:12 29.37822 -94.84715 647 ft 158 kts 333°
2026-05-05 00:12 29.38836 -94.85271 658 ft 161 kts 332°
2026-05-05 00:12 29.39850 -94.85810 666 ft 157 kts 334°
2026-05-05 00:12 29.40839 -94.86303 654 ft 155 kts 335°
2026-05-05 00:13 29.41816 -94.86765 651 ft 150 kts 339°
2026-05-05 00:13 29.42825 -94.87229 661 ft 158 kts 339°
2026-05-05 00:13 29.43843 -94.87674 658 ft 155 kts 342°
2026-05-05 00:13 29.44854 -94.88092 647 ft 156 kts 341°
2026-05-05 00:14 29.45880 -94.88529 655 ft 160 kts 341°
2026-05-05 00:14 29.46966 -94.88912 664 ft 164 kts 346°
2026-05-05 00:14 29.48073 -94.89202 658 ft 161 kts 348°
2026-05-05 00:14 29.49174 -94.89393 658 ft 159 kts 356°
2026-05-05 00:15 29.50247 -94.89481 651 ft 154 kts
2026-05-05 00:15 29.51359 -94.89486 657 ft 162 kts
2026-05-05 00:15 29.52452 -94.89405 661 ft 157 kts
2026-05-05 00:15 29.53550 -94.89233 643 ft 159 kts 11°
2026-05-05 00:16 29.54625 -94.88978 647 ft 157 kts 19°
2026-05-05 00:16 29.55701 -94.88703 628 ft 164 kts
2026-05-05 00:16 29.56794 -94.88950 644 ft 158 kts 333°
2026-05-05 00:16 29.57620 -94.89742 638 ft 155 kts 303°
2026-05-05 00:17 29.57989 -94.90868 639 ft 148 kts 270°
2026-05-05 00:17 29.57851 -94.91976 650 ft 134 kts 251°
2026-05-05 00:17 29.57626 -94.93013 632 ft 135 kts 253°
2026-05-05 00:17 29.57420 -94.94068 626 ft 140 kts 253°
2026-05-05 00:18 29.57218 -94.95181 644 ft 142 kts 255°
2026-05-05 00:18 29.57052 -94.96294 644 ft 137 kts 258°
2026-05-05 00:18 29.56985 -94.97378 626 ft 140 kts 272°
2026-05-05 00:18 29.57197 -94.98476 630 ft 141 kts 279°
2026-05-05 00:19 29.57440 -94.99583 628 ft 147 kts 278°
2026-05-05 00:19 29.57685 -95.00738 634 ft 149 kts 279°
2026-05-05 00:19 29.57931 -95.01881 633 ft 145 kts 282°
2026-05-05 00:19 29.58169 -95.02998 627 ft 144 kts 282°
2026-05-05 00:20 29.58401 -95.04117 627 ft 144 kts 283°
2026-05-05 00:20 29.58553 -95.04862 626 ft 144 kts 283°
2026-05-05 00:20 29.58781 -95.05987 625 ft 145 kts 282°
2026-05-05 00:20 29.59011 -95.07130 626 ft 149 kts 279°
2026-05-05 00:21 29.59246 -95.08293 626 ft 150 kts 278°
2026-05-05 00:21 29.59482 -95.09458 626 ft 150 kts 279°
2026-05-05 00:21 29.59719 -95.10609 639 ft 142 kts 279°
2026-05-05 00:21 29.59953 -95.11606 641 ft 118 kts 288°
2026-05-05 00:22 29.60315 -95.12389 622 ft 109 kts 306°
2026-05-05 00:22 29.60850 -95.13028 622 ft 113 kts 320°
2026-05-05 00:22 29.61541 -95.13535 620 ft 123 kts 329°
2026-05-05 00:22 29.62298 -95.13992 623 ft 122 kts 327°
2026-05-05 00:23 29.62851 -95.14635 616 ft 107 kts 297°
2026-05-05 00:23 29.62964 -95.15405 568 ft 93 kts 260°
2026-05-05 00:23 29.62859 -95.16089 549 ft 82 kts 235°
2026-05-05 00:23 29.62483 -95.16508 479 ft 72 kts 204°
2026-05-05 00:24 29.62017 -95.16654 386 ft 68 kts 191°
2026-05-05 00:24 29.61568 -95.16726 275 ft 58 kts 191°
2026-05-05 00:24 29.61253 -95.16786 93 ft 31 kts 192°
2026-05-05 00:24 29.61152 -95.16815 61 ft 8 kts 191°
2026-05-05 00:25 29.61110 -95.16821 65 ft 8 kts 187°
2026-05-05 00:25 29.61070 -95.16824 44 ft 4 kts 182°
2026-05-05 00:25 29.61062 -95.16826 44 ft 1 kts 183°
2026-05-05 00:25 29.61060 -95.16826 38 ft 0 kts 183°